createdAt,value
2018-06-03T00:02:23.289Z,16.30
2018-06-03T00:04:51.716Z,16.30
2018-06-03T00:07:20.103Z,16.30
2018-06-03T00:09:48.552Z,16.30
2018-06-03T00:12:17.047Z,16.30
2018-06-03T00:14:45.458Z,16.30
2018-06-03T00:17:13.844Z,16.40
2018-06-03T00:19:42.248Z,16.40
2018-06-03T00:22:17.104Z,16.40
2018-06-03T00:24:45.530Z,16.40
2018-06-03T00:27:13.905Z,16.40
2018-06-03T00:29:42.367Z,16.40
2018-06-03T00:32:10.744Z,16.50
2018-06-03T00:34:39.171Z,16.50
2018-06-03T00:37:07.545Z,16.50
2018-06-03T00:39:35.968Z,16.60
2018-06-03T00:42:04.367Z,16.60
2018-06-03T00:44:32.761Z,16.70
2018-06-03T00:47:01.160Z,16.70
2018-06-03T00:49:29.559Z,16.70
2018-06-03T00:51:57.928Z,16.70
2018-06-03T00:54:26.599Z,16.60
2018-06-03T00:57:06.149Z,16.60
2018-06-03T00:59:34.545Z,16.60
2018-06-03T01:02:02.954Z,16.70
2018-06-03T01:04:31.392Z,16.70
2018-06-03T01:06:59.767Z,16.80
2018-06-03T01:09:28.180Z,16.70
2018-06-03T01:11:56.560Z,16.70
2018-06-03T01:14:24.964Z,16.70
2018-06-03T01:16:53.325Z,16.70
2018-06-03T01:19:21.732Z,16.70
2018-06-03T01:21:50.111Z,16.80
2018-06-03T01:24:18.503Z,16.80
2018-06-03T01:31:43.012Z,16.70
2018-06-03T01:34:11.393Z,16.70
2018-06-03T01:36:39.768Z,16.60
2018-06-03T01:39:08.149Z,16.60
2018-06-03T01:41:36.556Z,16.60
2018-06-03T01:44:05.014Z,16.60
2018-06-03T01:46:33.417Z,16.60
2018-06-03T01:49:01.788Z,16.60
2018-06-03T01:51:30.185Z,16.60
2018-06-03T01:53:58.560Z,16.60
2018-06-03T01:56:26.927Z,16.50
2018-06-03T01:58:55.300Z,16.50
2018-06-03T02:01:23.692Z,16.50
2018-06-03T02:03:52.063Z,16.40
2018-06-03T02:06:20.477Z,16.40
2018-06-03T02:08:48.879Z,16.30
2018-06-03T02:11:17.538Z,16.40
2018-06-03T02:13:46.031Z,16.40
2018-06-03T02:16:14.503Z,16.40
2018-06-03T02:18:42.960Z,16.40
2018-06-03T02:21:11.379Z,16.40
2018-06-03T02:23:39.856Z,16.40
2018-06-03T02:26:08.405Z,16.30
2018-06-03T02:28:36.944Z,16.20
2018-06-03T02:31:05.528Z,16.20
2018-06-03T02:33:34.083Z,16.10
2018-06-03T02:36:02.632Z,16.10
2018-06-03T02:38:31.089Z,16.00
2018-06-03T02:40:59.568Z,16.10
2018-06-03T02:43:28.025Z,16.10
2018-06-03T02:45:56.644Z,16.10
2018-06-03T02:48:25.162Z,16.10
2018-06-03T02:50:53.650Z,16.10
2018-06-03T02:53:22.144Z,16.10
2018-06-03T02:55:50.584Z,16.10
2018-06-03T02:58:19.012Z,16.00
2018-06-03T03:00:47.477Z,16.00
2018-06-03T03:03:16.138Z,16.10
2018-06-03T03:05:44.872Z,16.10
2018-06-03T03:08:13.343Z,16.10
2018-06-03T03:10:41.911Z,16.00
2018-06-03T03:13:10.375Z,16.00
2018-06-03T03:15:38.848Z,16.00
2018-06-03T03:18:07.254Z,16.00
2018-06-03T03:20:35.684Z,16.00
2018-06-03T03:23:04.135Z,15.90
2018-06-03T03:25:32.564Z,15.80
2018-06-03T03:28:00.993Z,15.80
2018-06-03T03:30:29.575Z,15.70
2018-06-03T03:32:58.045Z,15.70
2018-06-03T03:35:26.845Z,15.70
2018-06-03T03:37:55.261Z,15.60
2018-06-03T03:40:23.876Z,15.60
2018-06-03T03:42:52.425Z,15.60
2018-06-03T03:45:20.919Z,15.60
2018-06-03T03:47:49.495Z,15.70
2018-06-03T03:50:18.104Z,15.70
2018-06-03T03:52:46.748Z,15.90
2018-06-03T03:55:15.416Z,15.90
2018-06-03T03:57:44.033Z,16.10
2018-06-03T04:00:12.416Z,16.10
2018-06-03T04:02:40.808Z,16.20
2018-06-03T04:05:09.369Z,16.30
2018-06-03T04:07:37.790Z,16.40
2018-06-03T04:10:06.261Z,16.40
2018-06-03T04:12:34.669Z,16.40
2018-06-03T04:15:03.068Z,16.40
2018-06-03T04:17:31.484Z,16.40
2018-06-03T04:19:59.887Z,16.50
2018-06-03T04:22:28.281Z,16.50
2018-06-03T04:24:56.685Z,16.60
2018-06-03T04:27:25.236Z,16.70
2018-06-03T04:29:53.697Z,16.70
2018-06-03T04:32:22.192Z,16.80
2018-06-03T04:37:18.718Z,17.30
2018-06-03T04:39:47.146Z,17.50
2018-06-03T04:42:15.580Z,17.70
2018-06-03T04:44:43.986Z,17.90
2018-06-03T04:47:12.470Z,18.00
2018-06-03T04:49:40.865Z,18.10
2018-06-03T04:52:09.321Z,18.30
2018-06-03T04:54:37.786Z,18.40
2018-06-03T04:57:06.283Z,18.70
2018-06-03T04:59:34.776Z,19.00
2018-06-03T05:02:03.190Z,19.40
2018-06-03T05:04:31.620Z,19.80
2018-06-03T05:07:00.050Z,20.10
2018-06-03T05:09:28.530Z,20.10
2018-06-03T05:11:56.975Z,20.60
2018-06-03T05:14:25.418Z,20.60
2018-06-03T05:16:53.821Z,20.80
2018-06-03T05:19:22.373Z,21.20
2018-06-03T05:21:50.816Z,21.50
2018-06-03T05:24:19.257Z,21.10
2018-06-03T05:26:47.706Z,20.90
2018-06-03T05:29:16.301Z,21.60
2018-06-03T05:31:44.731Z,22.50
2018-06-03T05:34:13.246Z,22.70
2018-06-03T05:36:42.031Z,22.90
2018-06-03T05:39:10.622Z,23.00
2018-06-03T05:41:39.056Z,23.60
2018-06-03T05:44:07.486Z,24.10
2018-06-03T05:46:35.936Z,25.20
2018-06-03T05:49:04.436Z,26.80
2018-06-03T05:51:32.928Z,26.40
2018-06-03T05:54:01.396Z,26.80
2018-06-03T05:56:29.920Z,26.60
2018-06-03T05:58:58.422Z,27.00
2018-06-03T06:01:26.849Z,28.30
2018-06-03T06:03:55.329Z,29.00
2018-06-03T06:06:23.705Z,28.20
2018-06-03T06:08:52.212Z,29.60
2018-06-03T06:11:20.652Z,29.00
2018-06-03T06:13:49.118Z,29.20
2018-06-03T06:16:17.480Z,29.10
2018-06-03T06:18:46.087Z,28.60
2018-06-03T06:21:14.464Z,28.80
2018-06-03T06:23:42.849Z,28.80
2018-06-03T06:26:11.208Z,29.10
2018-06-03T06:28:39.588Z,28.60
2018-06-03T06:31:08.221Z,28.70
2018-06-03T06:33:36.771Z,30.20
2018-06-03T06:36:05.298Z,30.30
2018-06-03T06:38:33.778Z,30.60
2018-06-03T06:41:02.352Z,29.20
2018-06-03T06:43:30.785Z,28.70
2018-06-03T06:45:59.146Z,28.70
2018-06-03T06:48:27.664Z,29.90
2018-06-03T06:50:56.142Z,30.80
2018-06-03T06:53:24.849Z,30.20
2018-06-03T06:55:53.325Z,29.00
2018-06-03T06:58:21.707Z,27.60
2018-06-03T07:00:50.113Z,27.10
2018-06-03T07:03:18.537Z,26.30
2018-06-03T07:05:47.240Z,25.60
2018-06-03T07:08:15.660Z,25.50
2018-06-03T07:10:44.109Z,24.50
2018-06-03T07:13:12.571Z,24.70
2018-06-03T07:15:40.968Z,24.50
2018-06-03T07:18:09.406Z,24.30
2018-06-03T07:20:37.892Z,24.50
2018-06-03T07:23:06.543Z,24.30
2018-06-03T07:25:35.088Z,24.90
2018-06-03T07:28:03.608Z,25.00
2018-06-03T07:30:32.029Z,25.10
2018-06-03T07:33:00.421Z,25.00
2018-06-03T07:35:28.915Z,25.70
2018-06-03T07:37:57.410Z,24.90
2018-06-03T07:40:25.804Z,25.50
2018-06-03T07:42:54.246Z,26.20
2018-06-03T07:45:22.781Z,26.70
2018-06-03T07:47:51.174Z,27.20
2018-06-03T07:50:19.637Z,29.90
2018-06-03T07:52:48.074Z,29.70
2018-06-03T07:55:16.474Z,28.30
2018-06-03T07:57:44.980Z,28.00
2018-06-03T08:00:13.461Z,27.60
2018-06-03T08:02:41.941Z,26.30
2018-06-03T08:05:10.370Z,26.60
2018-06-03T08:07:38.781Z,26.10
2018-06-03T08:10:07.224Z,25.90
2018-06-03T08:15:03.890Z,25.80
2018-06-03T08:20:00.422Z,25.10
2018-06-03T08:22:28.850Z,25.20
2018-06-03T08:24:57.249Z,26.00
2018-06-03T08:27:25.675Z,26.50
2018-06-03T08:29:54.109Z,26.60
2018-06-03T08:32:22.495Z,27.90
2018-06-03T08:34:50.901Z,29.10
2018-06-03T08:39:47.656Z,32.10
2018-06-03T08:42:16.133Z,30.90
2018-06-03T08:44:44.517Z,31.10
2018-06-03T08:47:13.080Z,31.90
2018-06-03T08:49:41.460Z,31.40
2018-06-03T08:54:38.008Z,30.50
2018-06-03T08:57:06.425Z,29.50
2018-06-03T08:59:34.792Z,30.80
2018-06-03T09:02:03.234Z,29.50
2018-06-03T09:04:31.625Z,29.00
2018-06-03T09:07:00.020Z,31.10
2018-06-03T09:09:28.390Z,32.00
2018-06-03T09:11:56.800Z,30.90
2018-06-03T09:14:25.160Z,29.10
2018-06-03T09:16:53.552Z,28.60
2018-06-03T09:19:21.908Z,29.30
2018-06-03T09:21:50.314Z,29.10
2018-06-03T09:24:18.768Z,28.70
2018-06-03T09:26:47.147Z,27.60
2018-06-03T09:29:15.542Z,28.30
2018-06-03T09:31:44.085Z,28.50
2018-06-03T09:34:12.470Z,29.70
2018-06-03T09:36:41.020Z,29.30
2018-06-03T09:39:09.478Z,28.50
2018-06-03T09:41:37.863Z,27.50
2018-06-03T09:44:06.269Z,26.50
2018-06-03T09:46:34.648Z,26.90
2018-06-03T09:49:03.058Z,27.00
2018-06-03T09:51:31.516Z,26.30
2018-06-03T09:53:59.961Z,26.40
2018-06-03T09:56:28.356Z,27.40
2018-06-03T09:58:57.019Z,27.10
2018-06-03T10:01:25.420Z,27.30
2018-06-03T10:03:53.859Z,26.80
2018-06-03T10:06:22.293Z,27.00
2018-06-03T10:08:50.694Z,26.60
2018-06-03T10:11:19.084Z,26.30
2018-06-03T10:13:47.452Z,25.80
2018-06-03T10:16:15.956Z,25.80
2018-06-03T10:18:44.314Z,25.90
2018-06-03T10:21:12.712Z,26.50
2018-06-03T10:23:41.264Z,26.60
2018-06-03T10:26:09.656Z,26.00
2018-06-03T10:28:38.078Z,25.90
2018-06-03T10:31:06.530Z,25.70
2018-06-03T10:33:34.968Z,26.10
2018-06-03T10:36:03.385Z,26.40
2018-06-03T10:38:31.819Z,26.80
2018-06-03T10:41:00.221Z,28.40
2018-06-03T10:43:28.620Z,28.80
2018-06-03T10:45:57.029Z,28.50
2018-06-03T10:48:25.445Z,28.40
2018-06-03T10:50:53.857Z,29.30
2018-06-03T10:53:22.295Z,28.90
2018-06-03T10:58:18.856Z,28.20
2018-06-03T11:00:47.272Z,28.30
2018-06-03T11:03:15.838Z,28.60
2018-06-03T11:05:44.229Z,28.50
2018-06-03T11:08:12.617Z,27.80
2018-06-03T11:10:41.157Z,26.70
2018-06-03T11:13:09.663Z,26.40
2018-06-03T11:15:38.318Z,25.70
2018-06-03T11:18:06.705Z,26.00
2018-06-03T11:20:35.104Z,26.20
2018-06-03T11:23:03.515Z,26.90
2018-06-03T11:25:31.896Z,27.30
2018-06-03T11:30:28.378Z,27.30
2018-06-03T11:32:56.828Z,26.90
2018-06-03T11:35:25.201Z,25.70
2018-06-03T11:37:53.601Z,25.60
2018-06-03T11:40:22.070Z,25.80
2018-06-03T11:42:50.476Z,26.40
2018-06-03T11:45:18.853Z,26.70
2018-06-03T11:47:47.236Z,26.20
2018-06-03T11:50:15.619Z,26.10
2018-06-03T11:52:44.009Z,26.30
2018-06-03T11:55:12.380Z,26.80
2018-06-03T11:57:55.671Z,27.30
2018-06-03T12:00:24.078Z,26.40
2018-06-03T12:02:52.493Z,26.70
2018-06-03T12:05:20.884Z,27.20
2018-06-03T12:07:49.534Z,27.80
2018-06-03T12:10:17.909Z,28.20
2018-06-03T12:12:46.289Z,28.00
2018-06-03T12:15:14.675Z,28.40
2018-06-03T12:17:43.081Z,28.60
2018-06-03T12:20:11.473Z,28.10
2018-06-03T12:22:39.955Z,27.40
2018-06-03T12:25:08.344Z,27.00
2018-06-03T12:27:36.749Z,26.40
2018-06-03T12:30:05.163Z,26.50
2018-06-03T12:32:33.584Z,25.90
2018-06-03T12:35:01.990Z,25.90
2018-06-03T12:37:30.436Z,25.70
2018-06-03T12:39:58.885Z,25.70
2018-06-03T12:42:27.265Z,25.60
2018-06-03T12:44:55.641Z,25.90
2018-06-03T12:47:24.034Z,26.10
2018-06-03T12:49:52.422Z,26.00
2018-06-03T12:52:20.862Z,26.10
2018-06-03T12:54:49.247Z,26.30
2018-06-03T12:57:17.612Z,25.90
2018-06-03T12:59:45.988Z,26.30
2018-06-03T13:02:14.361Z,27.10
2018-06-03T13:04:42.765Z,27.00
2018-06-03T13:07:11.123Z,27.40
2018-06-03T13:09:39.490Z,27.80
2018-06-03T13:12:08.224Z,27.70
2018-06-03T13:14:36.582Z,27.90
2018-06-03T13:17:04.989Z,27.30
2018-06-03T13:19:33.380Z,27.50
2018-06-03T13:22:01.848Z,27.60
2018-06-03T13:24:30.273Z,28.10
2018-06-03T13:26:58.704Z,27.70
2018-06-03T13:29:27.104Z,27.90
2018-06-03T13:31:55.528Z,28.00
2018-06-03T13:34:23.909Z,27.90
2018-06-03T13:36:52.309Z,27.10
2018-06-03T13:39:20.740Z,27.00
2018-06-03T13:41:49.407Z,27.60
2018-06-03T13:44:17.790Z,28.20
2018-06-03T13:46:46.208Z,28.40
2018-06-03T13:49:14.588Z,28.30
2018-06-03T13:51:43.039Z,28.20
2018-06-03T13:54:11.553Z,27.80
2018-06-03T13:56:39.961Z,27.60
2018-06-03T13:59:08.738Z,27.30
2018-06-03T14:01:37.137Z,27.60
2018-06-03T14:04:05.691Z,27.10
2018-06-03T14:06:34.140Z,27.10
2018-06-03T14:09:02.520Z,26.90
2018-06-03T14:13:59.037Z,26.40
2018-06-03T14:16:27.432Z,25.90
2018-06-03T14:18:55.838Z,26.20
2018-06-03T14:21:24.233Z,26.50
2018-06-03T14:23:52.664Z,26.10
2018-06-03T14:26:21.058Z,26.20
2018-06-03T14:28:49.469Z,25.90
2018-06-03T14:31:17.861Z,25.60
2018-06-03T14:33:46.282Z,25.90
2018-06-03T14:36:14.687Z,26.00
2018-06-03T14:38:43.158Z,25.90
2018-06-03T14:41:11.561Z,25.30
2018-06-03T14:43:40.386Z,25.20
2018-06-03T14:46:09.055Z,25.50
2018-06-03T14:48:37.455Z,25.30
2018-06-03T14:51:05.894Z,25.30
2018-06-03T14:53:34.313Z,25.50
2018-06-03T14:56:02.715Z,25.60
2018-06-03T14:58:31.065Z,25.90
2018-06-03T15:00:59.477Z,25.90
2018-06-03T15:03:27.885Z,25.90
2018-06-03T15:05:56.297Z,25.70
2018-06-03T15:08:24.700Z,25.50
2018-06-03T15:10:53.100Z,26.00
2018-06-03T15:13:21.516Z,26.40
2018-06-03T15:15:49.905Z,26.50
2018-06-03T15:18:18.332Z,26.10
2018-06-03T15:20:46.748Z,26.40
2018-06-03T15:23:15.169Z,26.40
2018-06-03T15:25:43.643Z,26.50
2018-06-03T15:28:12.043Z,26.70
2018-06-03T15:30:40.445Z,26.60
2018-06-03T15:33:08.870Z,26.50
2018-06-03T15:35:37.321Z,26.20
2018-06-03T15:38:05.752Z,26.00
2018-06-03T15:40:34.190Z,26.20
2018-06-03T15:43:02.632Z,26.20
2018-06-03T15:45:31.018Z,26.10
2018-06-03T15:47:59.406Z,25.80
2018-06-03T15:50:27.826Z,25.90
2018-06-03T15:52:56.216Z,26.10
2018-06-03T15:55:24.724Z,25.90
2018-06-03T15:57:53.117Z,25.60
2018-06-03T16:00:21.607Z,25.90
2018-06-03T16:02:50.020Z,25.70
2018-06-03T16:05:18.473Z,25.60
2018-06-03T16:07:46.894Z,25.60
2018-06-03T16:10:15.389Z,25.60
2018-06-03T16:12:43.825Z,25.40
2018-06-03T16:15:12.329Z,25.40
2018-06-03T16:17:40.776Z,25.30
2018-06-03T16:20:09.216Z,25.60
2018-06-03T16:22:37.685Z,25.90
2018-06-03T16:25:06.863Z,25.70
2018-06-03T16:27:35.339Z,25.70
2018-06-03T16:30:03.865Z,25.60
2018-06-03T16:32:32.262Z,25.50
2018-06-03T16:35:00.688Z,25.50
2018-06-03T16:37:29.170Z,25.50
2018-06-03T16:39:57.591Z,25.60
2018-06-03T16:42:25.991Z,25.50
2018-06-03T16:44:54.433Z,25.70
2018-06-03T16:47:22.855Z,25.70
2018-06-03T16:49:51.626Z,25.50
2018-06-03T16:52:20.239Z,25.50
2018-06-03T16:54:48.794Z,25.40
2018-06-03T16:57:17.185Z,25.50
2018-06-03T16:59:45.775Z,25.40
2018-06-03T17:02:14.384Z,25.40
2018-06-03T17:04:42.866Z,25.40
2018-06-03T17:07:11.301Z,25.30
2018-06-03T17:09:40.071Z,25.20
2018-06-03T17:12:08.571Z,25.20
2018-06-03T17:14:37.008Z,25.00
2018-06-03T17:17:05.357Z,24.80
2018-06-03T17:19:33.837Z,24.90
2018-06-03T17:22:02.252Z,24.90
2018-06-03T17:24:30.683Z,24.90
2018-06-03T17:26:59.325Z,24.70
2018-06-03T17:29:27.700Z,24.60
2018-06-03T17:31:56.157Z,24.60
2018-06-03T17:34:24.599Z,24.50
2018-06-03T17:36:53.009Z,24.40
2018-06-03T17:39:21.401Z,24.40
2018-06-03T17:41:49.798Z,24.40
2018-06-03T17:44:18.189Z,24.40
2018-06-03T17:46:46.610Z,24.40
2018-06-03T17:49:15.013Z,24.30
2018-06-03T17:51:43.543Z,24.20
2018-06-03T17:54:11.925Z,24.20
2018-06-03T17:56:40.317Z,24.20
2018-06-03T17:59:08.708Z,24.20
2018-06-03T18:01:37.119Z,24.10
2018-06-03T18:04:05.611Z,24.10
2018-06-03T18:06:34.032Z,24.00
2018-06-03T18:09:02.450Z,24.00
2018-06-03T18:11:30.897Z,23.90
2018-06-03T18:13:59.327Z,23.90
2018-06-03T18:16:27.769Z,23.80
2018-06-03T18:18:56.181Z,23.80
2018-06-03T18:21:24.593Z,23.80
2018-06-03T18:23:53.018Z,23.70
2018-06-03T18:26:21.406Z,23.60
2018-06-03T18:28:49.824Z,23.50
2018-06-03T18:31:18.228Z,23.50
2018-06-03T18:33:46.610Z,23.50
2018-06-03T18:36:15.013Z,23.40
2018-06-03T18:38:43.428Z,23.30
2018-06-03T18:41:11.807Z,23.20
2018-06-03T18:43:40.221Z,23.10
2018-06-03T18:46:08.621Z,23.10
2018-06-03T18:48:37.016Z,23.00
2018-06-03T18:51:05.654Z,22.90
2018-06-03T18:53:34.057Z,22.90
2018-06-03T18:56:02.438Z,22.80
2018-06-03T18:58:30.867Z,22.80
2018-06-03T19:00:59.244Z,22.70
2018-06-03T19:03:27.640Z,22.70
2018-06-03T19:05:56.037Z,22.60
2018-06-03T19:08:24.461Z,22.50
2018-06-03T19:10:52.881Z,22.50
2018-06-03T19:13:21.269Z,22.50
2018-06-03T19:15:49.652Z,22.40
2018-06-03T19:18:18.069Z,22.30
2018-06-03T19:20:46.505Z,22.20
2018-06-03T19:23:15.042Z,22.10
2018-06-03T19:25:43.431Z,22.10
2018-06-03T19:28:11.832Z,22.00
2018-06-03T19:30:40.337Z,21.90
2018-06-03T19:33:08.737Z,21.90
2018-06-03T19:35:37.120Z,21.70
2018-06-03T19:38:05.556Z,21.60
2018-06-03T19:40:34.037Z,21.50
2018-06-03T19:43:03.281Z,21.50
2018-06-03T19:45:31.689Z,21.50
2018-06-03T19:48:00.089Z,21.40
2018-06-03T19:52:56.573Z,21.10
2018-06-03T19:55:25.082Z,21.00
2018-06-03T19:57:53.468Z,21.00
2018-06-03T20:00:21.864Z,20.90
2018-06-03T20:02:50.292Z,20.80
2018-06-03T20:05:18.823Z,20.70
2018-06-03T20:07:47.222Z,20.50
2018-06-03T20:10:15.636Z,20.40
2018-06-03T20:12:44.021Z,20.30
2018-06-03T20:15:12.452Z,20.30
2018-06-03T20:17:40.891Z,20.20
2018-06-03T20:20:09.248Z,20.10
2018-06-03T20:22:37.651Z,20.00
2018-06-03T20:25:06.292Z,20.00
2018-06-03T20:27:34.719Z,19.90
2018-06-03T20:30:03.197Z,19.90
2018-06-03T20:32:31.680Z,19.80
2018-06-03T20:35:00.089Z,19.70
2018-06-03T20:37:28.497Z,19.60
2018-06-03T20:39:56.950Z,19.50
2018-06-03T20:42:25.357Z,19.40
2018-06-03T20:44:53.785Z,19.30
2018-06-03T20:47:22.184Z,19.20
2018-06-03T20:49:50.583Z,19.20
2018-06-03T20:52:18.993Z,19.10
2018-06-03T20:54:47.372Z,19.10
2018-06-03T20:57:15.788Z,19.00
2018-06-03T20:59:44.309Z,18.90
2018-06-03T21:02:12.754Z,18.90
2018-06-03T21:04:41.149Z,18.80
2018-06-03T21:07:09.564Z,18.70
2018-06-03T21:09:38.253Z,18.70
2018-06-03T21:12:06.634Z,18.60
2018-06-03T21:14:35.021Z,18.60
2018-06-03T21:17:03.440Z,18.60
2018-06-03T21:19:31.796Z,18.50
2018-06-03T21:22:00.178Z,18.50
2018-06-03T21:24:34.846Z,18.50
2018-06-03T21:27:03.261Z,18.40
2018-06-03T21:29:31.625Z,18.40
2018-06-03T21:32:00.011Z,18.30
2018-06-03T21:34:28.381Z,18.30
2018-06-03T21:36:56.772Z,18.20
2018-06-03T21:39:25.149Z,18.20
2018-06-03T21:41:53.524Z,18.20
2018-06-03T21:44:21.909Z,18.10
2018-06-03T21:46:50.275Z,18.10
2018-06-03T21:49:18.681Z,18.10
2018-06-03T21:51:47.037Z,18.00
2018-06-03T21:54:15.420Z,18.00
2018-06-03T21:56:43.780Z,17.90
2018-06-03T21:59:12.172Z,17.90
2018-06-03T22:01:40.546Z,17.80
2018-06-03T22:04:08.959Z,17.80
2018-06-03T22:06:37.345Z,17.80
2018-06-03T22:09:07.920Z,17.80
2018-06-03T22:11:36.284Z,17.70
2018-06-03T22:14:04.701Z,17.70
2018-06-03T22:16:33.061Z,17.60
2018-06-03T22:19:01.438Z,17.70
2018-06-03T22:21:29.834Z,17.70
2018-06-03T22:23:58.224Z,17.70
2018-06-03T22:26:26.589Z,17.60
2018-06-03T22:28:55.086Z,17.60
2018-06-03T22:31:23.481Z,17.50
2018-06-03T22:33:51.871Z,17.50
2018-06-03T22:36:20.248Z,17.40
2018-06-03T22:38:48.645Z,17.40
2018-06-03T22:41:17.236Z,17.30
2018-06-03T22:43:45.616Z,17.30
2018-06-03T22:46:13.988Z,17.30
2018-06-03T22:48:42.444Z,17.20
2018-06-03T22:51:10.916Z,17.20
2018-06-03T22:53:39.332Z,17.20
2018-06-03T22:56:07.704Z,17.10
2018-06-03T22:58:36.090Z,17.10
2018-06-03T23:01:04.469Z,17.10
2018-06-03T23:03:32.824Z,17.00
2018-06-03T23:06:01.240Z,17.00
2018-06-03T23:08:29.610Z,17.00
2018-06-03T23:10:57.989Z,17.00
2018-06-03T23:13:26.372Z,16.90
2018-06-03T23:15:54.769Z,16.80
2018-06-03T23:18:23.124Z,16.80
2018-06-03T23:20:51.505Z,16.80
2018-06-03T23:23:19.864Z,16.80
2018-06-03T23:25:48.240Z,16.70
2018-06-03T23:28:16.628Z,16.70
2018-06-03T23:30:45.032Z,16.70
2018-06-03T23:33:13.412Z,16.70
2018-06-03T23:35:41.856Z,16.70
2018-06-03T23:38:10.225Z,16.70
2018-06-03T23:40:38.640Z,16.70
2018-06-03T23:43:07.018Z,16.70
2018-06-03T23:45:35.417Z,16.70
2018-06-03T23:48:03.825Z,16.60
2018-06-03T23:50:32.208Z,16.60
2018-06-03T23:53:00.573Z,16.50
2018-06-03T23:55:28.960Z,16.50
2018-06-03T23:57:57.324Z,16.40
